sensor_id;sensor_type;location;lat;lon;timestamp;P1;durP1;ratioP1;P2;durP2;ratioP2
20749;SDS011;10535;50.664;4.564;2023-02-04T00:01:43;23.03;;;11.33;;
20749;SDS011;10535;50.664;4.564;2023-02-04T00:04:08;25.50;;;11.53;;
20749;SDS011;10535;50.664;4.564;2023-02-04T00:06:36;22.70;;;10.97;;
20749;SDS011;10535;50.664;4.564;2023-02-04T00:09:02;20.67;;;11.70;;
20749;SDS011;10535;50.664;4.564;2023-02-04T00:11:28;20.03;;;11.03;;
20749;SDS011;10535;50.664;4.564;2023-02-04T00:13:53;16.30;;;9.00;;
20749;SDS011;10535;50.664;4.564;2023-02-04T00:16:19;24.17;;;11.60;;
20749;SDS011;10535;50.664;4.564;2023-02-04T00:18:45;21.53;;;11.10;;
20749;SDS011;10535;50.664;4.564;2023-02-04T00:21:10;21.57;;;10.90;;
20749;SDS011;10535;50.664;4.564;2023-02-04T00:23:37;22.23;;;10.83;;
20749;SDS011;10535;50.664;4.564;2023-02-04T00:26:03;20.70;;;8.83;;
20749;SDS011;10535;50.664;4.564;2023-02-04T00:28:29;23.63;;;11.27;;
20749;SDS011;10535;50.664;4.564;2023-02-04T00:30:54;22.00;;;10.23;;
20749;SDS011;10535;50.664;4.564;2023-02-04T00:33:20;20.03;;;10.60;;
20749;SDS011;10535;50.664;4.564;2023-02-04T00:35:46;20.10;;;10.90;;
20749;SDS011;10535;50.664;4.564;2023-02-04T00:38:11;21.47;;;10.67;;
20749;SDS011;10535;50.664;4.564;2023-02-04T00:40:37;24.30;;;10.97;;
20749;SDS011;10535;50.664;4.564;2023-02-04T00:43:03;26.53;;;11.60;;
20749;SDS011;10535;50.664;4.564;2023-02-04T00:45:28;20.80;;;10.73;;
20749;SDS011;10535;50.664;4.564;2023-02-04T00:47:54;21.83;;;11.90;;
20749;SDS011;10535;50.664;4.564;2023-02-04T00:50:21;20.53;;;11.77;;
20749;SDS011;10535;50.664;4.564;2023-02-04T00:52:46;21.50;;;10.73;;
20749;SDS011;10535;50.664;4.564;2023-02-04T00:55:12;16.87;;;6.73;;
20749;SDS011;10535;50.664;4.564;2023-02-04T00:57:39;23.37;;;10.13;;
20749;SDS011;10535;50.664;4.564;2023-02-04T01:00:06;25.90;;;12.50;;
20749;SDS011;10535;50.664;4.564;2023-02-04T01:02:33;23.13;;;11.63;;
20749;SDS011;10535;50.664;4.564;2023-02-04T01:04:58;22.57;;;11.67;;
20749;SDS011;10535;50.664;4.564;2023-02-04T01:07:24;22.17;;;11.87;;
20749;SDS011;10535;50.664;4.564;2023-02-04T01:09:49;15.93;;;10.27;;
20749;SDS011;10535;50.664;4.564;2023-02-04T01:12:15;20.70;;;10.67;;
20749;SDS011;10535;50.664;4.564;2023-02-04T01:14:40;23.30;;;11.40;;
20749;SDS011;10535;50.664;4.564;2023-02-04T01:17:06;28.67;;;12.53;;
20749;SDS011;10535;50.664;4.564;2023-02-04T01:19:32;21.60;;;11.27;;
20749;SDS011;10535;50.664;4.564;2023-02-04T01:21:58;25.40;;;11.43;;
20749;SDS011;10535;50.664;4.564;2023-02-04T01:24:23;20.57;;;11.47;;
20749;SDS011;10535;50.664;4.564;2023-02-04T01:26:49;23.53;;;10.93;;
20749;SDS011;10535;50.664;4.564;2023-02-04T01:29:15;26.47;;;12.10;;
20749;SDS011;10535;50.664;4.564;2023-02-04T01:31:40;20.27;;;12.13;;
20749;SDS011;10535;50.664;4.564;2023-02-04T01:34:06;26.07;;;12.30;;
20749;SDS011;10535;50.664;4.564;2023-02-04T01:36:32;28.93;;;12.90;;
20749;SDS011;10535;50.664;4.564;2023-02-04T01:38:57;36.90;;;14.47;;
20749;SDS011;10535;50.664;4.564;2023-02-04T01:41:25;20.97;;;12.17;;
20749;SDS011;10535;50.664;4.564;2023-02-04T01:43:51;27.43;;;13.53;;
20749;SDS011;10535;50.664;4.564;2023-02-04T01:46:18;21.63;;;12.17;;
20749;SDS011;10535;50.664;4.564;2023-02-04T01:48:44;25.47;;;12.80;;
20749;SDS011;10535;50.664;4.564;2023-02-04T01:51:10;23.00;;;11.70;;
20749;SDS011;10535;50.664;4.564;2023-02-04T01:53:39;24.10;;;13.53;;
20749;SDS011;10535;50.664;4.564;2023-02-04T01:56:15;25.53;;;13.13;;
20749;SDS011;10535;50.664;4.564;2023-02-04T01:58:43;27.50;;;12.50;;
20749;SDS011;10535;50.664;4.564;2023-02-04T02:01:12;27.47;;;13.53;;
20749;SDS011;10535;50.664;4.564;2023-02-04T02:03:39;23.43;;;12.97;;
20749;SDS011;10535;50.664;4.564;2023-02-04T02:06:04;28.53;;;14.47;;
20749;SDS011;10535;50.664;4.564;2023-02-04T02:08:33;18.70;;;11.50;;
20749;SDS011;10535;50.664;4.564;2023-02-04T02:11:00;24.07;;;12.53;;
20749;SDS011;10535;50.664;4.564;2023-02-04T02:13:27;25.10;;;12.50;;
20749;SDS011;10535;50.664;4.564;2023-02-04T02:15:53;25.63;;;13.97;;
20749;SDS011;10535;50.664;4.564;2023-02-04T02:18:19;25.53;;;12.43;;
20749;SDS011;10535;50.664;4.564;2023-02-04T02:20:44;32.40;;;13.90;;
20749;SDS011;10535;50.664;4.564;2023-02-04T02:25:57;29.53;;;13.50;;
20749;SDS011;10535;50.664;4.564;2023-02-04T02:28:23;30.43;;;14.80;;
20749;SDS011;10535;50.664;4.564;2023-02-04T02:30:49;29.30;;;14.63;;
20749;SDS011;10535;50.664;4.564;2023-02-04T02:33:16;26.83;;;13.90;;
20749;SDS011;10535;50.664;4.564;2023-02-04T02:35:43;24.80;;;12.83;;
20749;SDS011;10535;50.664;4.564;2023-02-04T02:38:12;28.33;;;13.97;;
20749;SDS011;10535;50.664;4.564;2023-02-04T02:40:40;30.83;;;15.23;;
20749;SDS011;10535;50.664;4.564;2023-02-04T02:43:06;29.67;;;13.93;;
20749;SDS011;10535;50.664;4.564;2023-02-04T02:45:37;28.73;;;13.77;;
20749;SDS011;10535;50.664;4.564;2023-02-04T02:48:03;33.63;;;14.73;;
20749;SDS011;10535;50.664;4.564;2023-02-04T02:50:29;30.87;;;14.80;;
20749;SDS011;10535;50.664;4.564;2023-02-04T02:52:56;30.00;;;14.67;;
20749;SDS011;10535;50.664;4.564;2023-02-04T02:55:23;33.70;;;14.23;;
20749;SDS011;10535;50.664;4.564;2023-02-04T02:57:50;35.57;;;13.97;;
20749;SDS011;10535;50.664;4.564;2023-02-04T03:00:24;29.27;;;14.37;;
20749;SDS011;10535;50.664;4.564;2023-02-04T03:05:19;32.70;;;14.50;;
20749;SDS011;10535;50.664;4.564;2023-02-04T03:07:45;28.17;;;13.57;;
20749;SDS011;10535;50.664;4.564;2023-02-04T03:10:11;28.27;;;13.77;;
20749;SDS011;10535;50.664;4.564;2023-02-04T03:12:36;28.73;;;14.73;;
20749;SDS011;10535;50.664;4.564;2023-02-04T03:15:03;25.40;;;13.50;;
20749;SDS011;10535;50.664;4.564;2023-02-04T03:17:29;26.37;;;12.93;;
20749;SDS011;10535;50.664;4.564;2023-02-04T03:19:55;23.40;;;12.90;;
20749;SDS011;10535;50.664;4.564;2023-02-04T03:22:22;28.27;;;14.37;;
20749;SDS011;10535;50.664;4.564;2023-02-04T03:24:47;29.10;;;14.37;;
20749;SDS011;10535;50.664;4.564;2023-02-04T03:27:13;28.93;;;13.90;;
20749;SDS011;10535;50.664;4.564;2023-02-04T03:29:41;27.87;;;13.60;;
20749;SDS011;10535;50.664;4.564;2023-02-04T03:32:09;24.43;;;12.70;;
20749;SDS011;10535;50.664;4.564;2023-02-04T03:34:34;26.50;;;13.90;;
20749;SDS011;10535;50.664;4.564;2023-02-04T03:37:00;28.30;;;13.07;;
20749;SDS011;10535;50.664;4.564;2023-02-04T03:39:26;25.90;;;12.57;;
20749;SDS011;10535;50.664;4.564;2023-02-04T03:41:51;28.73;;;13.57;;
20749;SDS011;10535;50.664;4.564;2023-02-04T03:44:17;27.17;;;13.47;;
20749;SDS011;10535;50.664;4.564;2023-02-04T03:46:43;17.93;;;9.57;;
20749;SDS011;10535;50.664;4.564;2023-02-04T03:49:09;25.53;;;10.20;;
20749;SDS011;10535;50.664;4.564;2023-02-04T03:51:34;20.83;;;9.87;;
20749;SDS011;10535;50.664;4.564;2023-02-04T03:54:00;18.67;;;9.83;;
20749;SDS011;10535;50.664;4.564;2023-02-04T03:56:26;14.50;;;7.43;;
20749;SDS011;10535;50.664;4.564;2023-02-04T03:58:51;7.63;;;4.53;;
20749;SDS011;10535;50.664;4.564;2023-02-04T04:01:17;8.50;;;3.73;;
20749;SDS011;10535;50.664;4.564;2023-02-04T04:03:42;7.87;;;4.10;;
20749;SDS011;10535;50.664;4.564;2023-02-04T04:06:08;4.90;;;3.17;;
20749;SDS011;10535;50.664;4.564;2023-02-04T04:08:35;7.10;;;3.80;;
20749;SDS011;10535;50.664;4.564;2023-02-04T04:11:01;7.80;;;4.37;;
20749;SDS011;10535;50.664;4.564;2023-02-04T04:13:26;6.60;;;3.40;;
20749;SDS011;10535;50.664;4.564;2023-02-04T04:15:52;8.87;;;4.40;;
20749;SDS011;10535;50.664;4.564;2023-02-04T04:18:18;8.77;;;4.20;;
20749;SDS011;10535;50.664;4.564;2023-02-04T04:20:43;6.37;;;3.93;;
20749;SDS011;10535;50.664;4.564;2023-02-04T04:23:09;12.27;;;4.40;;
20749;SDS011;10535;50.664;4.564;2023-02-04T04:25:34;7.70;;;3.77;;
20749;SDS011;10535;50.664;4.564;2023-02-04T04:28:00;9.63;;;4.53;;
20749;SDS011;10535;50.664;4.564;2023-02-04T04:30:25;6.33;;;3.87;;
20749;SDS011;10535;50.664;4.564;2023-02-04T04:32:51;8.10;;;3.93;;
20749;SDS011;10535;50.664;4.564;2023-02-04T04:35:16;7.03;;;4.00;;
20749;SDS011;10535;50.664;4.564;2023-02-04T04:37:42;10.50;;;4.30;;
20749;SDS011;10535;50.664;4.564;2023-02-04T04:40:09;7.23;;;4.57;;
20749;SDS011;10535;50.664;4.564;2023-02-04T04:42:36;7.13;;;4.03;;
20749;SDS011;10535;50.664;4.564;2023-02-04T04:45:02;7.40;;;3.77;;
20749;SDS011;10535;50.664;4.564;2023-02-04T04:47:30;7.23;;;3.80;;
20749;SDS011;10535;50.664;4.564;2023-02-04T04:49:55;7.63;;;3.60;;
20749;SDS011;10535;50.664;4.564;2023-02-04T04:52:21;8.77;;;4.27;;
20749;SDS011;10535;50.664;4.564;2023-02-04T04:54:46;7.80;;;3.90;;
20749;SDS011;10535;50.664;4.564;2023-02-04T04:57:12;10.43;;;5.43;;
20749;SDS011;10535;50.664;4.564;2023-02-04T04:59:37;8.20;;;4.13;;
20749;SDS011;10535;50.664;4.564;2023-02-04T05:02:03;12.37;;;4.83;;
20749;SDS011;10535;50.664;4.564;2023-02-04T05:04:29;9.27;;;4.97;;
20749;SDS011;10535;50.664;4.564;2023-02-04T05:06:54;9.90;;;5.17;;
20749;SDS011;10535;50.664;4.564;2023-02-04T05:09:20;8.73;;;4.50;;
20749;SDS011;10535;50.664;4.564;2023-02-04T05:11:45;8.00;;;4.47;;
20749;SDS011;10535;50.664;4.564;2023-02-04T05:14:11;10.60;;;5.37;;
20749;SDS011;10535;50.664;4.564;2023-02-04T05:16:37;11.53;;;5.30;;
20749;SDS011;10535;50.664;4.564;2023-02-04T05:19:03;10.93;;;5.03;;
20749;SDS011;10535;50.664;4.564;2023-02-04T05:21:28;14.00;;;5.50;;
20749;SDS011;10535;50.664;4.564;2023-02-04T05:23:54;9.57;;;4.70;;
20749;SDS011;10535;50.664;4.564;2023-02-04T05:26:19;11.90;;;5.27;;
20749;SDS011;10535;50.664;4.564;2023-02-04T05:28:45;9.13;;;4.43;;
20749;SDS011;10535;50.664;4.564;2023-02-04T05:31:10;9.33;;;5.00;;
20749;SDS011;10535;50.664;4.564;2023-02-04T05:33:36;10.37;;;4.57;;
20749;SDS011;10535;50.664;4.564;2023-02-04T05:36:02;9.97;;;4.90;;
20749;SDS011;10535;50.664;4.564;2023-02-04T05:38:27;11.23;;;5.27;;
20749;SDS011;10535;50.664;4.564;2023-02-04T05:40:53;11.67;;;5.03;;
20749;SDS011;10535;50.664;4.564;2023-02-04T05:43:18;11.07;;;4.50;;
20749;SDS011;10535;50.664;4.564;2023-02-04T05:45:44;10.33;;;4.77;;
20749;SDS011;10535;50.664;4.564;2023-02-04T05:48:09;10.80;;;5.23;;
20749;SDS011;10535;50.664;4.564;2023-02-04T05:50:35;9.63;;;4.20;;
20749;SDS011;10535;50.664;4.564;2023-02-04T05:53:01;8.30;;;4.50;;
20749;SDS011;10535;50.664;4.564;2023-02-04T05:55:26;13.53;;;4.63;;
20749;SDS011;10535;50.664;4.564;2023-02-04T05:57:52;7.73;;;3.90;;
20749;SDS011;10535;50.664;4.564;2023-02-04T06:00:17;7.80;;;3.83;;
20749;SDS011;10535;50.664;4.564;2023-02-04T06:02:44;7.13;;;3.80;;
20749;SDS011;10535;50.664;4.564;2023-02-04T06:05:10;9.07;;;4.10;;
20749;SDS011;10535;50.664;4.564;2023-02-04T06:07:36;8.17;;;3.90;;
20749;SDS011;10535;50.664;4.564;2023-02-04T06:10:01;9.57;;;3.97;;
20749;SDS011;10535;50.664;4.564;2023-02-04T06:12:27;6.53;;;2.83;;
20749;SDS011;10535;50.664;4.564;2023-02-04T06:14:52;6.60;;;3.53;;
20749;SDS011;10535;50.664;4.564;2023-02-04T06:17:18;9.53;;;3.87;;
20749;SDS011;10535;50.664;4.564;2023-02-04T06:19:43;5.50;;;3.03;;
20749;SDS011;10535;50.664;4.564;2023-02-04T06:22:09;8.50;;;4.47;;
20749;SDS011;10535;50.664;4.564;2023-02-04T06:24:35;10.63;;;4.27;;
20749;SDS011;10535;50.664;4.564;2023-02-04T06:27:00;7.73;;;3.63;;
20749;SDS011;10535;50.664;4.564;2023-02-04T06:29:26;8.33;;;4.17;;
20749;SDS011;10535;50.664;4.564;2023-02-04T06:31:51;10.63;;;3.60;;
20749;SDS011;10535;50.664;4.564;2023-02-04T06:34:17;8.30;;;4.13;;
20749;SDS011;10535;50.664;4.564;2023-02-04T06:36:43;9.03;;;4.13;;
20749;SDS011;10535;50.664;4.564;2023-02-04T06:39:08;8.13;;;3.50;;
20749;SDS011;10535;50.664;4.564;2023-02-04T06:41:34;8.83;;;4.20;;
20749;SDS011;10535;50.664;4.564;2023-02-04T06:43:59;8.20;;;3.93;;
20749;SDS011;10535;50.664;4.564;2023-02-04T06:46:25;5.03;;;3.00;;
20749;SDS011;10535;50.664;4.564;2023-02-04T06:48:50;7.83;;;3.27;;
20749;SDS011;10535;50.664;4.564;2023-02-04T06:51:16;7.57;;;3.40;;
20749;SDS011;10535;50.664;4.564;2023-02-04T06:53:42;7.30;;;2.87;;
20749;SDS011;10535;50.664;4.564;2023-02-04T06:56:09;7.20;;;3.60;;
20749;SDS011;10535;50.664;4.564;2023-02-04T06:58:35;8.27;;;3.37;;
20749;SDS011;10535;50.664;4.564;2023-02-04T07:01:01;9.17;;;3.60;;
20749;SDS011;10535;50.664;4.564;2023-02-04T07:03:27;8.60;;;3.80;;
20749;SDS011;10535;50.664;4.564;2023-02-04T07:05:52;11.10;;;4.13;;
20749;SDS011;10535;50.664;4.564;2023-02-04T07:08:18;7.07;;;3.60;;
20749;SDS011;10535;50.664;4.564;2023-02-04T07:10:45;7.93;;;3.77;;
20749;SDS011;10535;50.664;4.564;2023-02-04T07:13:11;9.43;;;3.87;;
20749;SDS011;10535;50.664;4.564;2023-02-04T07:15:37;10.83;;;4.47;;
20749;SDS011;10535;50.664;4.564;2023-02-04T07:18:02;9.23;;;4.00;;
20749;SDS011;10535;50.664;4.564;2023-02-04T07:20:28;11.17;;;4.00;;
20749;SDS011;10535;50.664;4.564;2023-02-04T07:22:54;7.50;;;3.70;;
20749;SDS011;10535;50.664;4.564;2023-02-04T07:25:19;8.60;;;4.50;;
20749;SDS011;10535;50.664;4.564;2023-02-04T07:27:45;9.20;;;3.40;;
20749;SDS011;10535;50.664;4.564;2023-02-04T07:30:10;8.63;;;4.30;;
20749;SDS011;10535;50.664;4.564;2023-02-04T07:32:36;9.80;;;3.80;;
20749;SDS011;10535;50.664;4.564;2023-02-04T07:35:02;5.63;;;3.43;;
20749;SDS011;10535;50.664;4.564;2023-02-04T07:37:28;8.73;;;4.03;;
20749;SDS011;10535;50.664;4.564;2023-02-04T07:39:53;8.07;;;3.73;;
20749;SDS011;10535;50.664;4.564;2023-02-04T07:42:19;6.73;;;3.50;;
20749;SDS011;10535;50.664;4.564;2023-02-04T07:44:44;8.40;;;3.07;;
20749;SDS011;10535;50.664;4.564;2023-02-04T07:47:10;8.20;;;3.87;;
20749;SDS011;10535;50.664;4.564;2023-02-04T07:49:36;7.23;;;3.37;;
20749;SDS011;10535;50.664;4.564;2023-02-04T07:52:02;7.23;;;3.07;;
20749;SDS011;10535;50.664;4.564;2023-02-04T07:54:28;9.27;;;3.17;;
20749;SDS011;10535;50.664;4.564;2023-02-04T07:57:33;9.17;;;3.27;;
20749;SDS011;10535;50.664;4.564;2023-02-04T08:00:31;7.57;;;3.33;;
20749;SDS011;10535;50.664;4.564;2023-02-04T08:02:56;13.60;;;5.47;;
20749;SDS011;10535;50.664;4.564;2023-02-04T08:06:12;14.53;;;5.97;;
20749;SDS011;10535;50.664;4.564;2023-02-04T08:12:20;10.13;;;4.47;;
20749;SDS011;10535;50.664;4.564;2023-02-04T08:14:46;10.83;;;4.33;;
20749;SDS011;10535;50.664;4.564;2023-02-04T08:18:01;6.37;;;3.87;;
20749;SDS011;10535;50.664;4.564;2023-02-04T08:20:56;8.77;;;4.20;;
20749;SDS011;10535;50.664;4.564;2023-02-04T08:24:02;10.83;;;4.50;;
20749;SDS011;10535;50.664;4.564;2023-02-04T08:27:07;12.33;;;5.47;;
20749;SDS011;10535;50.664;4.564;2023-02-04T08:32:50;12.13;;;5.70;;
20749;SDS011;10535;50.664;4.564;2023-02-04T08:38:12;9.27;;;3.97;;
20749;SDS011;10535;50.664;4.564;2023-02-04T08:41:24;10.63;;;4.83;;
20749;SDS011;10535;50.664;4.564;2023-02-04T08:44:25;7.73;;;3.80;;
20749;SDS011;10535;50.664;4.564;2023-02-04T08:46:52;12.17;;;5.37;;
20749;SDS011;10535;50.664;4.564;2023-02-04T08:49:19;6.90;;;3.93;;
20749;SDS011;10535;50.664;4.564;2023-02-04T08:51:45;8.60;;;4.33;;
20749;SDS011;10535;50.664;4.564;2023-02-04T08:54:33;12.57;;;5.87;;
20749;SDS011;10535;50.664;4.564;2023-02-04T08:56:59;11.70;;;5.70;;
20749;SDS011;10535;50.664;4.564;2023-02-04T08:59:26;12.43;;;5.63;;
20749;SDS011;10535;50.664;4.564;2023-02-04T09:01:52;12.57;;;6.03;;
20749;SDS011;10535;50.664;4.564;2023-02-04T09:04:18;10.60;;;5.57;;
20749;SDS011;10535;50.664;4.564;2023-02-04T09:06:45;7.23;;;4.13;;
20749;SDS011;10535;50.664;4.564;2023-02-04T09:09:11;10.87;;;5.10;;
20749;SDS011;10535;50.664;4.564;2023-02-04T09:11:37;6.40;;;3.70;;
20749;SDS011;10535;50.664;4.564;2023-02-04T09:14:03;10.17;;;3.80;;
20749;SDS011;10535;50.664;4.564;2023-02-04T09:16:29;9.73;;;4.37;;
20749;SDS011;10535;50.664;4.564;2023-02-04T09:19:01;10.60;;;4.60;;
20749;SDS011;10535;50.664;4.564;2023-02-04T09:22:29;9.07;;;4.70;;
20749;SDS011;10535;50.664;4.564;2023-02-04T09:25:17;8.63;;;3.73;;
20749;SDS011;10535;50.664;4.564;2023-02-04T09:28:07;10.67;;;4.13;;
20749;SDS011;10535;50.664;4.564;2023-02-04T09:31:36;10.47;;;4.37;;
20749;SDS011;10535;50.664;4.564;2023-02-04T09:37:50;11.90;;;4.90;;
20749;SDS011;10535;50.664;4.564;2023-02-04T09:40:19;10.23;;;5.03;;
20749;SDS011;10535;50.664;4.564;2023-02-04T09:42:51;10.63;;;4.60;;
20749;SDS011;10535;50.664;4.564;2023-02-04T09:45:18;10.57;;;4.30;;
20749;SDS011;10535;50.664;4.564;2023-02-04T09:47:49;20.63;;;9.97;;
20749;SDS011;10535;50.664;4.564;2023-02-04T09:50:21;19.03;;;8.77;;
20749;SDS011;10535;50.664;4.564;2023-02-04T09:55:55;13.00;;;7.83;;
20749;SDS011;10535;50.664;4.564;2023-02-04T10:04:22;5.03;;;2.97;;
20749;SDS011;10535;50.664;4.564;2023-02-04T10:06:58;4.90;;;2.80;;
20749;SDS011;10535;50.664;4.564;2023-02-04T10:10:30;4.37;;;2.63;;
20749;SDS011;10535;50.664;4.564;2023-02-04T10:13:00;6.93;;;3.33;;
20749;SDS011;10535;50.664;4.564;2023-02-04T10:16:01;6.50;;;3.23;;
20749;SDS011;10535;50.664;4.564;2023-02-04T10:19:34;4.60;;;2.67;;
20749;SDS011;10535;50.664;4.564;2023-02-04T10:25:38;4.53;;;2.30;;
20749;SDS011;10535;50.664;4.564;2023-02-04T10:28:07;6.70;;;3.70;;
20749;SDS011;10535;50.664;4.564;2023-02-04T10:31:38;5.13;;;3.30;;
20749;SDS011;10535;50.664;4.564;2023-02-04T10:34:33;5.83;;;2.70;;
20749;SDS011;10535;50.664;4.564;2023-02-04T10:40:59;4.93;;;2.20;;
20749;SDS011;10535;50.664;4.564;2023-02-04T10:43:53;2.80;;;2.20;;
20749;SDS011;10535;50.664;4.564;2023-02-04T10:54:14;1.93;;;1.40;;
20749;SDS011;10535;50.664;4.564;2023-02-04T11:00:54;2.07;;;1.60;;
20749;SDS011;10535;50.664;4.564;2023-02-04T11:04:30;3.70;;;2.10;;
20749;SDS011;10535;50.664;4.564;2023-02-04T11:10:40;2.50;;;1.80;;
20749;SDS011;10535;50.664;4.564;2023-02-04T11:13:19;1.60;;;1.50;;
20749;SDS011;10535;50.664;4.564;2023-02-04T11:19:11;4.73;;;1.53;;
20749;SDS011;10535;50.664;4.564;2023-02-04T11:30:38;2.70;;;1.70;;
20749;SDS011;10535;50.664;4.564;2023-02-04T11:39:50;2.87;;;2.20;;
20749;SDS011;10535;50.664;4.564;2023-02-04T11:46:01;2.90;;;1.70;;
20749;SDS011;10535;50.664;4.564;2023-02-04T11:49:26;2.77;;;1.60;;
20749;SDS011;10535;50.664;4.564;2023-02-04T11:52:10;2.47;;;1.57;;
20749;SDS011;10535;50.664;4.564;2023-02-04T11:54:57;1.37;;;0.90;;
20749;SDS011;10535;50.664;4.564;2023-02-04T11:58:13;1.50;;;1.23;;
20749;SDS011;10535;50.664;4.564;2023-02-04T12:00:47;2.23;;;1.47;;
20749;SDS011;10535;50.664;4.564;2023-02-04T12:03:46;1.90;;;1.37;;
20749;SDS011;10535;50.664;4.564;2023-02-04T12:06:28;4.37;;;1.80;;
20749;SDS011;10535;50.664;4.564;2023-02-04T12:09:35;2.13;;;1.33;;
20749;SDS011;10535;50.664;4.564;2023-02-04T12:12:22;2.20;;;1.60;;
20749;SDS011;10535;50.664;4.564;2023-02-04T12:17:44;2.83;;;2.03;;
20749;SDS011;10535;50.664;4.564;2023-02-04T12:20:33;1.83;;;1.70;;
20749;SDS011;10535;50.664;4.564;2023-02-04T12:30:30;2.33;;;1.80;;
20749;SDS011;10535;50.664;4.564;2023-02-04T12:42:54;3.83;;;2.60;;
20749;SDS011;10535;50.664;4.564;2023-02-04T12:45:55;5.23;;;3.13;;
20749;SDS011;10535;50.664;4.564;2023-02-04T12:48:44;4.20;;;2.57;;
20749;SDS011;10535;50.664;4.564;2023-02-04T12:51:27;4.13;;;1.93;;
20749;SDS011;10535;50.664;4.564;2023-02-04T12:54:00;6.03;;;3.10;;
20749;SDS011;10535;50.664;4.564;2023-02-04T12:56:39;5.27;;;3.13;;
20749;SDS011;10535;50.664;4.564;2023-02-04T13:04:11;5.37;;;3.20;;
20749;SDS011;10535;50.664;4.564;2023-02-04T13:10:37;6.97;;;4.30;;
20749;SDS011;10535;50.664;4.564;2023-02-04T13:13:04;6.70;;;3.70;;
20749;SDS011;10535;50.664;4.564;2023-02-04T13:18:47;4.87;;;3.40;;
20749;SDS011;10535;50.664;4.564;2023-02-04T13:21:34;6.47;;;3.47;;
20749;SDS011;10535;50.664;4.564;2023-02-04T13:24:07;7.40;;;4.07;;
20749;SDS011;10535;50.664;4.564;2023-02-04T13:27:30;6.00;;;3.27;;
20749;SDS011;10535;50.664;4.564;2023-02-04T13:29:58;5.20;;;3.67;;
20749;SDS011;10535;50.664;4.564;2023-02-04T13:33:02;5.20;;;3.60;;
20749;SDS011;10535;50.664;4.564;2023-02-04T13:35:45;7.17;;;3.73;;
20749;SDS011;10535;50.664;4.564;2023-02-04T13:38:13;8.30;;;3.50;;
20749;SDS011;10535;50.664;4.564;2023-02-04T13:40:39;8.17;;;3.83;;
20749;SDS011;10535;50.664;4.564;2023-02-04T13:43:11;5.80;;;3.90;;
20749;SDS011;10535;50.664;4.564;2023-02-04T13:46:07;5.43;;;3.70;;
20749;SDS011;10535;50.664;4.564;2023-02-04T13:48:35;6.77;;;3.77;;
20749;SDS011;10535;50.664;4.564;2023-02-04T13:51:19;7.47;;;4.03;;
20749;SDS011;10535;50.664;4.564;2023-02-04T13:54:00;7.23;;;4.33;;
20749;SDS011;10535;50.664;4.564;2023-02-04T13:56:26;8.23;;;4.33;;
20749;SDS011;10535;50.664;4.564;2023-02-04T13:58:52;8.60;;;3.97;;
20749;SDS011;10535;50.664;4.564;2023-02-04T14:01:17;12.67;;;5.33;;
20749;SDS011;10535;50.664;4.564;2023-02-04T14:03:43;15.23;;;5.23;;
20749;SDS011;10535;50.664;4.564;2023-02-04T14:06:10;6.40;;;4.60;;
20749;SDS011;10535;50.664;4.564;2023-02-04T14:08:36;8.97;;;4.50;;
20749;SDS011;10535;50.664;4.564;2023-02-04T14:11:01;7.13;;;3.87;;
20749;SDS011;10535;50.664;4.564;2023-02-04T14:13:27;7.73;;;4.07;;
20749;SDS011;10535;50.664;4.564;2023-02-04T14:15:53;6.20;;;4.87;;
20749;SDS011;10535;50.664;4.564;2023-02-04T14:18:18;6.43;;;4.00;;
20749;SDS011;10535;50.664;4.564;2023-02-04T14:20:44;7.50;;;4.30;;
20749;SDS011;10535;50.664;4.564;2023-02-04T14:23:10;5.30;;;4.20;;
20749;SDS011;10535;50.664;4.564;2023-02-04T14:25:36;7.07;;;4.60;;
20749;SDS011;10535;50.664;4.564;2023-02-04T14:28:02;7.63;;;4.97;;
20749;SDS011;10535;50.664;4.564;2023-02-04T14:30:28;7.17;;;4.53;;
20749;SDS011;10535;50.664;4.564;2023-02-04T14:32:54;6.20;;;4.27;;
20749;SDS011;10535;50.664;4.564;2023-02-04T14:35:20;8.50;;;4.20;;
20749;SDS011;10535;50.664;4.564;2023-02-04T14:37:47;6.37;;;4.17;;
20749;SDS011;10535;50.664;4.564;2023-02-04T14:40:13;5.23;;;3.57;;
20749;SDS011;10535;50.664;4.564;2023-02-04T14:42:39;7.47;;;4.17;;
20749;SDS011;10535;50.664;4.564;2023-02-04T14:45:05;11.83;;;5.00;;
20749;SDS011;10535;50.664;4.564;2023-02-04T14:47:35;7.07;;;4.17;;
20749;SDS011;10535;50.664;4.564;2023-02-04T14:50:02;9.73;;;4.60;;
20749;SDS011;10535;50.664;4.564;2023-02-04T14:52:29;7.63;;;4.63;;
20749;SDS011;10535;50.664;4.564;2023-02-04T14:54:55;7.13;;;4.40;;
20749;SDS011;10535;50.664;4.564;2023-02-04T14:57:21;6.17;;;4.00;;
20749;SDS011;10535;50.664;4.564;2023-02-04T14:59:46;7.50;;;4.53;;
20749;SDS011;10535;50.664;4.564;2023-02-04T15:02:12;8.33;;;4.47;;
20749;SDS011;10535;50.664;4.564;2023-02-04T15:04:41;8.63;;;4.70;;
20749;SDS011;10535;50.664;4.564;2023-02-04T15:07:15;6.13;;;4.07;;
20749;SDS011;10535;50.664;4.564;2023-02-04T15:09:42;8.67;;;4.60;;
20749;SDS011;10535;50.664;4.564;2023-02-04T15:12:08;10.17;;;5.07;;
20749;SDS011;10535;50.664;4.564;2023-02-04T15:14:35;8.27;;;4.87;;
20749;SDS011;10535;50.664;4.564;2023-02-04T15:17:02;9.33;;;5.77;;
20749;SDS011;10535;50.664;4.564;2023-02-04T15:19:27;9.23;;;5.03;;
20749;SDS011;10535;50.664;4.564;2023-02-04T15:21:53;7.57;;;4.90;;
20749;SDS011;10535;50.664;4.564;2023-02-04T15:24:19;11.63;;;6.17;;
20749;SDS011;10535;50.664;4.564;2023-02-04T15:26:46;7.60;;;4.87;;
20749;SDS011;10535;50.664;4.564;2023-02-04T15:29:12;8.63;;;5.03;;
20749;SDS011;10535;50.664;4.564;2023-02-04T15:31:38;12.67;;;6.63;;
20749;SDS011;10535;50.664;4.564;2023-02-04T15:34:03;8.93;;;5.57;;
20749;SDS011;10535;50.664;4.564;2023-02-04T15:36:29;13.10;;;6.47;;
20749;SDS011;10535;50.664;4.564;2023-02-04T15:38:54;9.57;;;5.53;;
20749;SDS011;10535;50.664;4.564;2023-02-04T15:41:20;15.17;;;5.67;;
20749;SDS011;10535;50.664;4.564;2023-02-04T15:43:47;10.70;;;5.90;;
20749;SDS011;10535;50.664;4.564;2023-02-04T15:46:13;14.87;;;7.47;;
20749;SDS011;10535;50.664;4.564;2023-02-04T15:48:38;12.77;;;6.63;;
20749;SDS011;10535;50.664;4.564;2023-02-04T15:51:04;17.00;;;7.60;;
20749;SDS011;10535;50.664;4.564;2023-02-04T15:53:29;15.20;;;8.13;;
20749;SDS011;10535;50.664;4.564;2023-02-04T15:55:55;24.33;;;8.97;;
20749;SDS011;10535;50.664;4.564;2023-02-04T15:58:21;21.70;;;10.40;;
20749;SDS011;10535;50.664;4.564;2023-02-04T16:00:46;21.73;;;11.13;;
20749;SDS011;10535;50.664;4.564;2023-02-04T16:03:12;24.63;;;10.33;;
20749;SDS011;10535;50.664;4.564;2023-02-04T16:05:37;23.63;;;10.40;;
20749;SDS011;10535;50.664;4.564;2023-02-04T16:08:03;26.00;;;11.77;;
20749;SDS011;10535;50.664;4.564;2023-02-04T16:10:29;27.90;;;11.57;;
20749;SDS011;10535;50.664;4.564;2023-02-04T16:12:54;28.13;;;12.93;;
20749;SDS011;10535;50.664;4.564;2023-02-04T16:15:21;26.30;;;13.53;;
20749;SDS011;10535;50.664;4.564;2023-02-04T16:17:48;30.07;;;14.07;;
20749;SDS011;10535;50.664;4.564;2023-02-04T16:20:13;26.10;;;13.23;;
20749;SDS011;10535;50.664;4.564;2023-02-04T16:22:39;31.37;;;13.83;;
20749;SDS011;10535;50.664;4.564;2023-02-04T16:25:06;24.30;;;12.63;;
20749;SDS011;10535;50.664;4.564;2023-02-04T16:27:32;26.17;;;12.73;;
20749;SDS011;10535;50.664;4.564;2023-02-04T16:29:58;27.20;;;13.27;;
20749;SDS011;10535;50.664;4.564;2023-02-04T16:32:24;30.60;;;14.73;;
20749;SDS011;10535;50.664;4.564;2023-02-04T16:34:51;29.23;;;13.00;;
20749;SDS011;10535;50.664;4.564;2023-02-04T16:37:17;29.23;;;13.73;;
20749;SDS011;10535;50.664;4.564;2023-02-04T16:39:43;31.90;;;14.67;;
20749;SDS011;10535;50.664;4.564;2023-02-04T16:42:09;30.50;;;13.97;;
20749;SDS011;10535;50.664;4.564;2023-02-04T16:44:35;34.53;;;14.70;;